sensor_id;sensor_type;location;lat;lon;timestamp;pressure;altitude;pressure_sealevel;temperature;humidity
58473;BME280;44775;51.564;5.460;2023-11-19T00:00:48;100596.22;;;12.29;100.00
58473;BME280;44775;51.564;5.460;2023-11-19T00:03:14;100610.25;;;12.31;100.00
58473;BME280;44775;51.564;5.460;2023-11-19T00:05:39;100625.22;;;12.40;100.00
58473;BME280;44775;51.564;5.460;2023-11-19T00:08:04;100611.16;;;12.38;100.00
58473;BME280;44775;51.564;5.460;2023-11-19T00:10:31;100609.50;;;12.37;100.00
58473;BME280;44775;51.564;5.460;2023-11-19T00:12:56;100612.47;;;12.42;100.00
58473;BME280;44775;51.564;5.460;2023-11-19T00:15:22;100604.44;;;12.42;100.00
58473;BME280;44775;51.564;5.460;2023-11-19T00:17:49;100602.75;;;12.41;100.00
58473;BME280;44775;51.564;5.460;2023-11-19T00:20:16;100591.66;;;12.44;100.00
58473;BME280;44775;51.564;5.460;2023-11-19T00:22:42;100586.84;;;12.55;100.00
58473;BME280;44775;51.564;5.460;2023-11-19T00:25:08;100576.31;;;12.53;100.00
58473;BME280;44775;51.564;5.460;2023-11-19T00:27:33;100577.16;;;12.53;100.00
58473;BME280;44775;51.564;5.460;2023-11-19T00:29:59;100563.75;;;12.53;100.00
58473;BME280;44775;51.564;5.460;2023-11-19T00:32:24;100563.09;;;12.51;100.00
58473;BME280;44775;51.564;5.460;2023-11-19T00:34:50;100553.78;;;12.47;100.00
58473;BME280;44775;51.564;5.460;2023-11-19T00:37:16;100559.22;;;12.54;100.00
58473;BME280;44775;51.564;5.460;2023-11-19T00:39:42;100576.66;;;12.65;100.00
58473;BME280;44775;51.564;5.460;2023-11-19T00:42:08;100566.50;;;12.60;100.00
58473;BME280;44775;51.564;5.460;2023-11-19T00:44:35;100567.34;;;12.61;100.00
58473;BME280;44775;51.564;5.460;2023-11-19T00:47:00;100561.13;;;12.60;100.00
58473;BME280;44775;51.564;5.460;2023-11-19T00:49:25;100567.34;;;12.61;100.00
58473;BME280;44775;51.564;5.460;2023-11-19T00:51:51;100570.00;;;12.61;100.00
58473;BME280;44775;51.564;5.460;2023-11-19T00:54:16;100562.34;;;12.58;100.00
58473;BME280;44775;51.564;5.460;2023-11-19T00:56:41;100576.28;;;12.68;100.00
58473;BME280;44775;51.564;5.460;2023-11-19T00:59:07;100566.88;;;12.57;100.00
58473;BME280;44775;51.564;5.460;2023-11-19T01:01:32;100560.31;;;12.60;100.00
58473;BME280;44775;51.564;5.460;2023-11-19T01:03:58;100568.06;;;12.55;100.00
58473;BME280;44775;51.564;5.460;2023-11-19T01:06:30;100574.72;;;12.59;100.00
58473;BME280;44775;51.564;5.460;2023-11-19T01:08:56;100575.50;;;12.52;100.00
58473;BME280;44775;51.564;5.460;2023-11-19T01:11:22;100580.47;;;12.56;100.00
58473;BME280;44775;51.564;5.460;2023-11-19T01:13:48;100588.78;;;12.61;100.00
58473;BME280;44775;51.564;5.460;2023-11-19T01:16:13;100575.75;;;12.58;100.00
58473;BME280;44775;51.564;5.460;2023-11-19T01:18:39;100569.84;;;12.47;100.00
58473;BME280;44775;51.564;5.460;2023-11-19T01:21:05;100563.53;;;12.55;100.00
58473;BME280;44775;51.564;5.460;2023-11-19T01:23:30;100561.81;;;12.47;100.00
58473;BME280;44775;51.564;5.460;2023-11-19T01:25:55;100545.34;;;12.50;100.00
58473;BME280;44775;51.564;5.460;2023-11-19T01:28:20;100547.13;;;12.43;100.00
58473;BME280;44775;51.564;5.460;2023-11-19T01:30:46;100532.34;;;12.47;100.00
58473;BME280;44775;51.564;5.460;2023-11-19T01:33:11;100529.84;;;12.46;100.00
58473;BME280;44775;51.564;5.460;2023-11-19T01:35:36;100538.50;;;12.48;100.00
58473;BME280;44775;51.564;5.460;2023-11-19T01:38:01;100537.81;;;12.39;100.00
58473;BME280;44775;51.564;5.460;2023-11-19T01:40:27;100542.59;;;12.44;100.00
58473;BME280;44775;51.564;5.460;2023-11-19T01:42:52;100551.66;;;12.43;100.00
58473;BME280;44775;51.564;5.460;2023-11-19T01:45:28;100562.84;;;12.46;100.00
58473;BME280;44775;51.564;5.460;2023-11-19T01:47:55;100562.19;;;12.44;100.00
58473;BME280;44775;51.564;5.460;2023-11-19T01:50:21;100572.66;;;12.39;100.00
58473;BME280;44775;51.564;5.460;2023-11-19T01:52:47;100558.22;;;12.40;100.00
58473;BME280;44775;51.564;5.460;2023-11-19T01:55:13;100567.84;;;12.35;100.00
58473;BME280;44775;51.564;5.460;2023-11-19T01:57:39;100555.84;;;12.31;100.00
58473;BME280;44775;51.564;5.460;2023-11-19T02:00:06;100560.44;;;12.37;100.00
58473;BME280;44775;51.564;5.460;2023-11-19T02:02:36;100555.09;;;12.37;100.00
58473;BME280;44775;51.564;5.460;2023-11-19T02:05:01;100557.97;;;12.35;100.00
58473;BME280;44775;51.564;5.460;2023-11-19T02:07:27;100554.63;;;12.33;100.00
58473;BME280;44775;51.564;5.460;2023-11-19T02:09:53;100547.59;;;12.47;100.00
58473;BME280;44775;51.564;5.460;2023-11-19T02:12:18;100549.81;;;12.43;100.00
58473;BME280;44775;51.564;5.460;2023-11-19T02:14:45;100537.97;;;12.38;100.00
58473;BME280;44775;51.564;5.460;2023-11-19T02:19:52;100546.94;;;12.45;100.00
58473;BME280;44775;51.564;5.460;2023-11-19T02:22:17;100532.47;;;12.39;100.00
58473;BME280;44775;51.564;5.460;2023-11-19T02:24:42;100517.38;;;12.38;100.00
58473;BME280;44775;51.564;5.460;2023-11-19T02:27:16;100536.78;;;12.40;100.00
58473;BME280;44775;51.564;5.460;2023-11-19T02:29:45;100540.22;;;12.34;100.00
58473;BME280;44775;51.564;5.460;2023-11-19T02:32:10;100532.91;;;12.28;100.00
58473;BME280;44775;51.564;5.460;2023-11-19T02:34:38;100535.97;;;12.25;100.00
58473;BME280;44775;51.564;5.460;2023-11-19T02:37:03;100541.81;;;12.28;100.00
58473;BME280;44775;51.564;5.460;2023-11-19T02:39:30;100546.50;;;12.26;100.00
58473;BME280;44775;51.564;5.460;2023-11-19T02:41:56;100548.44;;;12.18;100.00
58473;BME280;44775;51.564;5.460;2023-11-19T02:44:21;100548.09;;;12.21;100.00
58473;BME280;44775;51.564;5.460;2023-11-19T02:46:47;100535.53;;;12.07;100.00
58473;BME280;44775;51.564;5.460;2023-11-19T02:49:14;100543.88;;;12.12;100.00
58473;BME280;44775;51.564;5.460;2023-11-19T02:51:39;100543.56;;;12.07;100.00
58473;BME280;44775;51.564;5.460;2023-11-19T02:54:04;100538.97;;;12.00;100.00
58473;BME280;44775;51.564;5.460;2023-11-19T02:56:30;100539.16;;;11.99;100.00
58473;BME280;44775;51.564;5.460;2023-11-19T02:58:59;100533.28;;;11.80;100.00
58473;BME280;44775;51.564;5.460;2023-11-19T03:01:25;100537.09;;;11.71;100.00
58473;BME280;44775;51.564;5.460;2023-11-19T03:04:01;100541.59;;;11.71;100.00
58473;BME280;44775;51.564;5.460;2023-11-19T03:06:27;100538.28;;;11.69;100.00
58473;BME280;44775;51.564;5.460;2023-11-19T03:08:54;100536.44;;;11.69;100.00
58473;BME280;44775;51.564;5.460;2023-11-19T03:11:20;100530.53;;;11.59;100.00
58473;BME280;44775;51.564;5.460;2023-11-19T03:13:45;100534.56;;;11.55;100.00
58473;BME280;44775;51.564;5.460;2023-11-19T03:16:11;100541.00;;;11.46;100.00
58473;BME280;44775;51.564;5.460;2023-11-19T03:18:37;100542.41;;;11.42;100.00
58473;BME280;44775;51.564;5.460;2023-11-19T03:21:04;100554.47;;;11.38;100.00
58473;BME280;44775;51.564;5.460;2023-11-19T03:23:29;100543.94;;;11.36;100.00
58473;BME280;44775;51.564;5.460;2023-11-19T03:25:54;100541.28;;;11.36;100.00
58473;BME280;44775;51.564;5.460;2023-11-19T03:28:20;100541.94;;;11.38;100.00
58473;BME280;44775;51.564;5.460;2023-11-19T03:30:45;100549.97;;;11.38;100.00
58473;BME280;44775;51.564;5.460;2023-11-19T03:33:11;100549.66;;;11.33;100.00
58473;BME280;44775;51.564;5.460;2023-11-19T03:35:36;100533.13;;;11.29;100.00
58473;BME280;44775;51.564;5.460;2023-11-19T03:38:01;100534.44;;;11.33;100.00
58473;BME280;44775;51.564;5.460;2023-11-19T03:40:28;100537.84;;;11.27;100.00
58473;BME280;44775;51.564;5.460;2023-11-19T03:42:53;100536.63;;;11.30;100.00
58473;BME280;44775;51.564;5.460;2023-11-19T03:45:18;100533.69;;;11.25;100.00
58473;BME280;44775;51.564;5.460;2023-11-19T03:47:43;100533.31;;;11.28;100.00
58473;BME280;44775;51.564;5.460;2023-11-19T03:50:09;100539.97;;;11.32;100.00
58473;BME280;44775;51.564;5.460;2023-11-19T03:52:35;100527.63;;;11.31;100.00
58473;BME280;44775;51.564;5.460;2023-11-19T03:55:00;100537.00;;;11.27;100.00
58473;BME280;44775;51.564;5.460;2023-11-19T03:57:27;100530.66;;;11.28;100.00
58473;BME280;44775;51.564;5.460;2023-11-19T03:59:53;100542.53;;;11.25;100.00
58473;BME280;44775;51.564;5.460;2023-11-19T04:02:18;100539.41;;;11.22;100.00
58473;BME280;44775;51.564;5.460;2023-11-19T04:04:44;100540.09;;;11.16;100.00
58473;BME280;44775;51.564;5.460;2023-11-19T04:07:09;100544.50;;;11.08;100.00
58473;BME280;44775;51.564;5.460;2023-11-19T04:09:34;100532.41;;;11.21;100.00
58473;BME280;44775;51.564;5.460;2023-11-19T04:12:00;100523.94;;;11.09;100.00
58473;BME280;44775;51.564;5.460;2023-11-19T04:14:26;100535.94;;;11.13;100.00
58473;BME280;44775;51.564;5.460;2023-11-19T04:16:52;100537.97;;;11.11;100.00
58473;BME280;44775;51.564;5.460;2023-11-19T04:19:18;100534.47;;;11.10;100.00
58473;BME280;44775;51.564;5.460;2023-11-19T04:21:43;100550.81;;;11.16;100.00
58473;BME280;44775;51.564;5.460;2023-11-19T04:24:10;100533.63;;;11.10;100.00
58473;BME280;44775;51.564;5.460;2023-11-19T04:26:42;100548.50;;;11.13;100.00
58473;BME280;44775;51.564;5.460;2023-11-19T04:29:14;100549.50;;;11.11;100.00
58473;BME280;44775;51.564;5.460;2023-11-19T04:31:40;100551.16;;;11.13;100.00
58473;BME280;44775;51.564;5.460;2023-11-19T04:34:06;100554.84;;;11.11;100.00
58473;BME280;44775;51.564;5.460;2023-11-19T04:36:32;100562.22;;;11.09;100.00
58473;BME280;44775;51.564;5.460;2023-11-19T04:38:58;100554.06;;;11.26;100.00
58473;BME280;44775;51.564;5.460;2023-11-19T04:41:24;100541.50;;;11.26;100.00
58473;BME280;44775;51.564;5.460;2023-11-19T04:43:50;100551.00;;;11.14;100.00
58473;BME280;44775;51.564;5.460;2023-11-19T04:46:15;100560.06;;;11.28;100.00
58473;BME280;44775;51.564;5.460;2023-11-19T04:48:41;100553.78;;;11.21;100.00
58473;BME280;44775;51.564;5.460;2023-11-19T04:51:07;100549.16;;;11.15;100.00
58473;BME280;44775;51.564;5.460;2023-11-19T04:53:34;100565.38;;;11.13;100.00
58473;BME280;44775;51.564;5.460;2023-11-19T04:55:59;100569.75;;;11.06;100.00
58473;BME280;44775;51.564;5.460;2023-11-19T04:58:25;100559.38;;;11.11;100.00
58473;BME280;44775;51.564;5.460;2023-11-19T05:00:50;100568.94;;;11.05;100.00
58473;BME280;44775;51.564;5.460;2023-11-19T05:03:15;100573.56;;;11.11;100.00
58473;BME280;44775;51.564;5.460;2023-11-19T05:05:40;100567.44;;;11.03;100.00
58473;BME280;44775;51.564;5.460;2023-11-19T05:08:06;100574.47;;;11.04;100.00
58473;BME280;44775;51.564;5.460;2023-11-19T05:10:31;100577.31;;;11.02;100.00
58473;BME280;44775;51.564;5.460;2023-11-19T05:12:56;100569.47;;;11.01;100.00
58473;BME280;44775;51.564;5.460;2023-11-19T05:15:22;100571.22;;;10.94;100.00
58473;BME280;44775;51.564;5.460;2023-11-19T05:17:48;100576.84;;;10.99;100.00
58473;BME280;44775;51.564;5.460;2023-11-19T05:20:13;100572.16;;;11.01;100.00
58473;BME280;44775;51.564;5.460;2023-11-19T05:22:41;100568.53;;;10.94;100.00
58473;BME280;44775;51.564;5.460;2023-11-19T05:25:07;100580.31;;;11.07;100.00
58473;BME280;44775;51.564;5.460;2023-11-19T05:27:34;100571.03;;;10.95;100.00
58473;BME280;44775;51.564;5.460;2023-11-19T05:30:00;100573.00;;;11.01;100.00
58473;BME280;44775;51.564;5.460;2023-11-19T05:32:25;100570.81;;;10.97;100.00
58473;BME280;44775;51.564;5.460;2023-11-19T05:34:50;100576.56;;;10.94;100.00
58473;BME280;44775;51.564;5.460;2023-11-19T05:37:16;100584.69;;;11.00;100.00
58473;BME280;44775;51.564;5.460;2023-11-19T05:39:41;100579.50;;;10.99;100.00
58473;BME280;44775;51.564;5.460;2023-11-19T05:42:07;100569.72;;;10.91;100.00
58473;BME280;44775;51.564;5.460;2023-11-19T05:44:32;100588.06;;;10.94;100.00
58473;BME280;44775;51.564;5.460;2023-11-19T05:46:57;100592.41;;;10.95;100.00
58473;BME280;44775;51.564;5.460;2023-11-19T05:49:22;100596.44;;;10.91;100.00
58473;BME280;44775;51.564;5.460;2023-11-19T05:51:48;100588.06;;;10.94;100.00
58473;BME280;44775;51.564;5.460;2023-11-19T05:54:13;100588.44;;;10.91;100.00
58473;BME280;44775;51.564;5.460;2023-11-19T05:56:39;100588.66;;;10.81;100.00
58473;BME280;44775;51.564;5.460;2023-11-19T05:59:04;100594.66;;;10.83;100.00
58473;BME280;44775;51.564;5.460;2023-11-19T06:01:35;100585.28;;;10.87;100.00
58473;BME280;44775;51.564;5.460;2023-11-19T06:04:01;100584.69;;;10.77;100.00
58473;BME280;44775;51.564;5.460;2023-11-19T06:06:27;100588.41;;;10.68;100.00
58473;BME280;44775;51.564;5.460;2023-11-19T06:08:53;100586.41;;;10.62;100.00
58473;BME280;44775;51.564;5.460;2023-11-19T06:11:18;100574.78;;;10.55;100.00
58473;BME280;44775;51.564;5.460;2023-11-19T06:13:45;100594.06;;;10.73;100.00
58473;BME280;44775;51.564;5.460;2023-11-19T06:16:11;100582.25;;;10.59;100.00
58473;BME280;44775;51.564;5.460;2023-11-19T06:18:37;100582.25;;;10.59;100.00
58473;BME280;44775;51.564;5.460;2023-11-19T06:21:02;100573.75;;;10.56;100.00
58473;BME280;44775;51.564;5.460;2023-11-19T06:23:28;100582.44;;;10.58;100.00
58473;BME280;44775;51.564;5.460;2023-11-19T06:25:53;100575.31;;;10.50;100.00
58473;BME280;44775;51.564;5.460;2023-11-19T06:28:18;100581.16;;;10.46;100.00
58473;BME280;44775;51.564;5.460;2023-11-19T06:30:44;100567.31;;;10.42;100.00
58473;BME280;44775;51.564;5.460;2023-11-19T06:33:12;100574.34;;;10.43;100.00
58473;BME280;44775;51.564;5.460;2023-11-19T06:35:38;100579.81;;;10.50;100.00
58473;BME280;44775;51.564;5.460;2023-11-19T06:38:04;100581.47;;;10.51;100.00
58473;BME280;44775;51.564;5.460;2023-11-19T06:40:35;100579.16;;;10.48;100.00
58473;BME280;44775;51.564;5.460;2023-11-19T06:43:00;100572.78;;;10.49;100.00
58473;BME280;44775;51.564;5.460;2023-11-19T06:45:26;100572.50;;;10.44;100.00
58473;BME280;44775;51.564;5.460;2023-11-19T06:47:51;100569.84;;;10.35;100.00
58473;BME280;44775;51.564;5.460;2023-11-19T06:50:16;100562.97;;;10.41;100.00
58473;BME280;44775;51.564;5.460;2023-11-19T06:52:44;100568.88;;;10.28;100.00
58473;BME280;44775;51.564;5.460;2023-11-19T06:55:10;100576.72;;;10.30;100.00
58473;BME280;44775;51.564;5.460;2023-11-19T06:57:35;100581.41;;;10.28;100.00
58473;BME280;44775;51.564;5.460;2023-11-19T07:00:00;100596.59;;;10.27;100.00
58473;BME280;44775;51.564;5.460;2023-11-19T07:02:26;100604.75;;;10.34;100.00
58473;BME280;44775;51.564;5.460;2023-11-19T07:04:51;100604.09;;;10.32;100.00
58473;BME280;44775;51.564;5.460;2023-11-19T07:07:17;100604.06;;;10.40;100.00
58473;BME280;44775;51.564;5.460;2023-11-19T07:09:42;100600.09;;;10.28;100.00
58473;BME280;44775;51.564;5.460;2023-11-19T07:12:08;100613.28;;;10.29;100.00
58473;BME280;44775;51.564;5.460;2023-11-19T07:14:33;100618.13;;;10.26;100.00
58473;BME280;44775;51.564;5.460;2023-11-19T07:16:59;100621.47;;;10.28;100.00
58473;BME280;44775;51.564;5.460;2023-11-19T07:19:25;100616.63;;;10.31;100.00
58473;BME280;44775;51.564;5.460;2023-11-19T07:21:50;100625.78;;;10.29;100.00
58473;BME280;44775;51.564;5.460;2023-11-19T07:24:16;100622.47;;;10.27;100.00
58473;BME280;44775;51.564;5.460;2023-11-19T07:26:46;100626.81;;;10.28;100.00
58473;BME280;44775;51.564;5.460;2023-11-19T07:29:12;100628.47;;;10.21;100.00
58473;BME280;44775;51.564;5.460;2023-11-19T07:31:38;100628.47;;;10.29;100.00
58473;BME280;44775;51.564;5.460;2023-11-19T07:34:03;100627.47;;;10.30;100.00
58473;BME280;44775;51.564;5.460;2023-11-19T07:36:30;100639.81;;;10.31;100.00
58473;BME280;44775;51.564;5.460;2023-11-19T07:38:56;100632.66;;;10.23;100.00
58473;BME280;44775;51.564;5.460;2023-11-19T07:41:23;100636.31;;;10.30;100.00
58473;BME280;44775;51.564;5.460;2023-11-19T07:43:50;100636.97;;;10.24;100.00
58473;BME280;44775;51.564;5.460;2023-11-19T07:46:17;100638.63;;;10.25;100.00
58473;BME280;44775;51.564;5.460;2023-11-19T07:48:45;100623.44;;;10.34;100.00
58473;BME280;44775;51.564;5.460;2023-11-19T07:51:12;100628.13;;;10.32;100.00
58473;BME280;44775;51.564;5.460;2023-11-19T07:53:38;100636.94;;;10.40;100.00
58473;BME280;44775;51.564;5.460;2023-11-19T07:56:04;100626.91;;;10.43;100.00
58473;BME280;44775;51.564;5.460;2023-11-19T07:58:29;100634.28;;;10.40;100.00
58473;BME280;44775;51.564;5.460;2023-11-19T08:00:54;100641.47;;;10.40;100.00
58473;BME280;44775;51.564;5.460;2023-11-19T08:03:20;100641.44;;;10.48;100.00
58473;BME280;44775;51.564;5.460;2023-11-19T08:05:47;100647.25;;;10.52;100.00
58473;BME280;44775;51.564;5.460;2023-11-19T08:08:12;100655.25;;;10.52;100.00
58473;BME280;44775;51.564;5.460;2023-11-19T08:10:37;100660.75;;;10.58;100.00
58473;BME280;44775;51.564;5.460;2023-11-19T08:13:03;100658.91;;;10.59;100.00
58473;BME280;44775;51.564;5.460;2023-11-19T08:15:29;100648.75;;;10.54;100.00
58473;BME280;44775;51.564;5.460;2023-11-19T08:17:54;100657.06;;;10.59;100.00
58473;BME280;44775;51.564;5.460;2023-11-19T08:20:19;100654.38;;;10.68;100.00
58473;BME280;44775;51.564;5.460;2023-11-19T08:22:45;100663.72;;;10.72;100.00
58473;BME280;44775;51.564;5.460;2023-11-19T08:25:11;100665.19;;;10.74;100.00
58473;BME280;44775;51.564;5.460;2023-11-19T08:27:36;100674.06;;;10.75;100.00
58473;BME280;44775;51.564;5.460;2023-11-19T08:30:02;100671.16;;;10.84;100.00
58473;BME280;44775;51.564;5.460;2023-11-19T08:32:27;100669.50;;;10.83;100.00
58473;BME280;44775;51.564;5.460;2023-11-19T08:34:53;100661.78;;;10.88;100.00
58473;BME280;44775;51.564;5.460;2023-11-19T08:37:19;100663.91;;;10.93;100.00
58473;BME280;44775;51.564;5.460;2023-11-19T08:39:50;100655.75;;;10.95;100.00
58473;BME280;44775;51.564;5.460;2023-11-19T08:42:16;100646.53;;;10.97;100.00
58473;BME280;44775;51.564;5.460;2023-11-19T08:44:41;100655.81;;;11.09;100.00
58473;BME280;44775;51.564;5.460;2023-11-19T08:47:09;100665.13;;;11.14;100.00
58473;BME280;44775;51.564;5.460;2023-11-19T08:49:35;100649.34;;;11.27;100.00
58473;BME280;44775;51.564;5.460;2023-11-19T08:52:00;100657.13;;;11.37;100.00
58473;BME280;44775;51.564;5.460;2023-11-19T08:54:25;100656.63;;;11.41;100.00
58473;BME280;44775;51.564;5.460;2023-11-19T08:56:51;100657.38;;;11.50;100.00
58473;BME280;44775;51.564;5.460;2023-11-19T08:59:16;100663.78;;;11.64;100.00
58473;BME280;44775;51.564;5.460;2023-11-19T09:01:41;100662.13;;;11.63;100.00
58473;BME280;44775;51.564;5.460;2023-11-19T09:04:07;100651.22;;;11.64;100.00
58473;BME280;44775;51.564;5.460;2023-11-19T09:06:33;100654.75;;;11.65;100.00
58473;BME280;44775;51.564;5.460;2023-11-19T09:08:58;100656.81;;;11.77;100.00
58473;BME280;44775;51.564;5.460;2023-11-19T09:11:28;100654.44;;;11.82;100.00
58473;BME280;44775;51.564;5.460;2023-11-19T09:13:53;100668.50;;;11.85;100.00
58473;BME280;44775;51.564;5.460;2023-11-19T09:16:18;100668.97;;;11.88;100.00
58473;BME280;44775;51.564;5.460;2023-11-19T09:18:44;100657.81;;;11.85;100.00
58473;BME280;44775;51.564;5.460;2023-11-19T09:21:12;100650.59;;;11.85;100.00
58473;BME280;44775;51.564;5.460;2023-11-19T09:23:37;100657.28;;;11.81;100.00
58473;BME280;44775;51.564;5.460;2023-11-19T09:26:13;100659.94;;;11.81;100.00
58473;BME280;44775;51.564;5.460;2023-11-19T09:28:39;100656.69;;;11.71;100.00
58473;BME280;44775;51.564;5.460;2023-11-19T09:31:13;100648.13;;;11.75;100.00
58473;BME280;44775;51.564;5.460;2023-11-19T09:33:38;100637.22;;;11.77;100.00
58473;BME280;44775;51.564;5.460;2023-11-19T09:36:04;100654.66;;;11.96;100.00
58473;BME280;44775;51.564;5.460;2023-11-19T09:38:29;100639.13;;;11.91;100.00
58473;BME280;44775;51.564;5.460;2023-11-19T09:40:54;100652.25;;;12.01;100.00
58473;BME280;44775;51.564;5.460;2023-11-19T09:43:20;100654.94;;;12.01;100.00
58473;BME280;44775;51.564;5.460;2023-11-19T09:45:50;100657.66;;;12.16;100.00
58473;BME280;44775;51.564;5.460;2023-11-19T09:48:18;100647.09;;;12.14;100.00
58473;BME280;44775;51.564;5.460;2023-11-19T09:50:47;100660.22;;;12.24;100.00
58473;BME280;44775;51.564;5.460;2023-11-19T09:53:12;100667.25;;;12.25;100.00
58473;BME280;44775;51.564;5.460;2023-11-19T09:55:38;100666.53;;;12.46;100.00
58473;BME280;44775;51.564;5.460;2023-11-19T09:58:03;100669.56;;;12.58;100.00
58473;BME280;44775;51.564;5.460;2023-11-19T10:00:30;100677.31;;;12.67;100.00
58473;BME280;44775;51.564;5.460;2023-11-19T10:02:56;100670.22;;;12.60;100.00
58473;BME280;44775;51.564;5.460;2023-11-19T10:05:23;100668.16;;;12.62;100.00
58473;BME280;44775;51.564;5.460;2023-11-19T10:07:49;100662.56;;;12.57;100.00
58473;BME280;44775;51.564;5.460;2023-11-19T10:10:14;100665.84;;;12.73;100.00
58473;BME280;44775;51.564;5.460;2023-11-19T10:12:44;100672.88;;;12.89;100.00
58473;BME280;44775;51.564;5.460;2023-11-19T10:15:22;100663.59;;;12.92;100.00
58473;BME280;44775;51.564;5.460;2023-11-19T10:17:49;100662.88;;;12.83;100.00
58473;BME280;44775;51.564;5.460;2023-11-19T10:20:15;100654.91;;;12.90;100.00
58473;BME280;44775;51.564;5.460;2023-11-19T10:22:40;100677.63;;;13.09;100.00
58473;BME280;44775;51.564;5.460;2023-11-19T10:25:21;100670.63;;;13.29;100.00
58473;BME280;44775;51.564;5.460;2023-11-19T10:27:48;100671.13;;;13.18;100.00
58473;BME280;44775;51.564;5.460;2023-11-19T10:30:17;100669.41;;;13.10;100.00
58473;BME280;44775;51.564;5.460;2023-11-19T10:32:42;100677.25;;;13.12;100.00
58473;BME280;44775;51.564;5.460;2023-11-19T10:35:08;100665.97;;;13.02;100.00
58473;BME280;44775;51.564;5.460;2023-11-19T10:37:33;100666.25;;;13.07;100.00
58473;BME280;44775;51.564;5.460;2023-11-19T10:40:00;100670.47;;;13.16;100.00
58473;BME280;44775;51.564;5.460;2023-11-19T10:42:26;100668.53;;;13.25;100.00
58473;BME280;44775;51.564;5.460;2023-11-19T10:44:51;100662.13;;;13.26;100.00
58473;BME280;44775;51.564;5.460;2023-11-19T10:47:18;100655.66;;;13.20;100.00
58473;BME280;44775;51.564;5.460;2023-11-19T10:49:44;100650.69;;;13.17;100.00
58473;BME280;44775;51.564;5.460;2023-11-19T10:52:11;100661.41;;;13.17;100.00
58473;BME280;44775;51.564;5.460;2023-11-19T10:54:39;100660.94;;;13.28;100.00
58473;BME280;44775;51.564;5.460;2023-11-19T10:57:09;100672.31;;;13.30;100.00
58473;BME280;44775;51.564;5.460;2023-11-19T10:59:37;100663.16;;;13.46;100.00
58473;BME280;44775;51.564;5.460;2023-11-19T11:02:07;100666.50;;;13.48;100.00
58473;BME280;44775;51.564;5.460;2023-11-19T11:04:39;100652.44;;;13.46;100.00
58473;BME280;44775;51.564;5.460;2023-11-19T11:07:07;100649.44;;;13.34;100.00
58473;BME280;44775;51.564;5.460;2023-11-19T11:09:32;100655.97;;;13.46;100.00
58473;BME280;44775;51.564;5.460;2023-11-19T11:11:59;100651.44;;;13.47;100.00
58473;BME280;44775;51.564;5.460;2023-11-19T11:14:25;100640.41;;;13.42;100.00
58473;BME280;44775;51.564;5.460;2023-11-19T11:16:53;100632.50;;;13.34;100.00
58473;BME280;44775;51.564;5.460;2023-11-19T11:19:18;100630.22;;;13.16;100.00
58473;BME280;44775;51.564;5.460;2023-11-19T11:21:49;100633.56;;;13.18;100.00
58473;BME280;44775;51.564;5.460;2023-11-19T11:29:37;100643.66;;;12.80;100.00
58473;BME280;44775;51.564;5.460;2023-11-19T11:34:58;100633.53;;;12.45;100.00
58473;BME280;44775;51.564;5.460;2023-11-19T11:37:32;100621.41;;;12.35;100.00
58473;BME280;44775;51.564;5.460;2023-11-19T11:40:01;100630.78;;;12.39;100.00
58473;BME280;44775;51.564;5.460;2023-11-19T11:42:31;100625.78;;;12.21;100.00
58473;BME280;44775;51.564;5.460;2023-11-19T11:45:04;100618.31;;;12.01;100.00
58473;BME280;44775;51.564;5.460;2023-11-19T11:50:18;100624.38;;;11.95;100.00
58473;BME280;44775;51.564;5.460;2023-11-19T11:57:53;100610.88;;;12.48;100.00
58473;BME280;44775;51.564;5.460;2023-11-19T12:00:39;100612.47;;;12.79;100.00
58473;BME280;44775;51.564;5.460;2023-11-19T12:03:06;100613.78;;;12.83;100.00
58473;BME280;44775;51.564;5.460;2023-11-19T12:05:32;100596.00;;;12.60;100.00
58473;BME280;44775;51.564;5.460;2023-11-19T12:08:05;100603.25;;;12.81;100.00
58473;BME280;44775;51.564;5.460;2023-11-19T12:10:52;100606.22;;;13.08;100.00
58473;BME280;44775;51.564;5.460;2023-11-19T12:13:19;100598.69;;;13.18;100.00
58473;BME280;44775;51.564;5.460;2023-11-19T12:18:29;100593.47;;;13.31;100.00
58473;BME280;44775;51.564;5.460;2023-11-19T12:20:55;100590.13;;;13.29;100.00
58473;BME280;44775;51.564;5.460;2023-11-19T12:23:21;100579.28;;;13.37;100.00
58473;BME280;44775;51.564;5.460;2023-11-19T12:25:46;100590.91;;;13.44;100.00
58473;BME280;44775;51.564;5.460;2023-11-19T12:28:12;100592.69;;;13.37;100.00
58473;BME280;44775;51.564;5.460;2023-11-19T12:30:38;100589.75;;;13.54;100.00
58473;BME280;44775;51.564;5.460;2023-11-19T12:33:11;100588.88;;;13.53;100.00
58473;BME280;44775;51.564;5.460;2023-11-19T12:38:05;100592.91;;;13.64;100.00
58473;BME280;44775;51.564;5.460;2023-11-19T12:40:31;100601.75;;;13.58;100.00
58473;BME280;44775;51.564;5.460;2023-11-19T12:42:56;100602.91;;;13.49;100.00
58473;BME280;44775;51.564;5.460;2023-11-19T12:45:21;100608.81;;;13.37;100.00
58473;BME280;44775;51.564;5.460;2023-11-19T12:47:48;100605.13;;;13.23;100.00
58473;BME280;44775;51.564;5.460;2023-11-19T12:50:15;100611.38;;;13.24;100.00
58473;BME280;44775;51.564;5.460;2023-11-19T12:52:54;100601.50;;;13.10;100.00
58473;BME280;44775;51.564;5.460;2023-11-19T12:55:29;100599.56;;;13.04;100.00
58473;BME280;44775;51.564;5.460;2023-11-19T12:57:55;100594.69;;;12.92;100.00
58473;BME280;44775;51.564;5.460;2023-11-19T13:00:22;100590.34;;;12.91;100.00